YXGR weather

Gilgandra Multi Purpose Service Helipad
Gilgandra, New South Wales, Australia

Public forecast

Using degrees Celsius for public forecast. Weather courtesy of forecast.io.

METAR (pilot weather report)

Closest report is Dubbo City Regional Airport, 31.1 nm (57.7 km) S. Retrieved 2019/09/16 03:30 UTC (0 seconds ago):

YSDU 160330Z AUTO 30013KT 9999 // NCD 30/M10 Q1015 RF00.0/000.0

TAF (pilot weather forecast)

Forecast is more than 12 hours old.

Closest forecast is Dubbo City Regional Airport, 31.1 nm (57.7 km) S. Retrieved 2019/09/15 00:36 UTC (1 day ago):

TAF YSDU 152306Z 1600/1618 33014KT CAVOK FM160200 31015KT CAVOK BECMG 1607/1609 19010KT CAVOK BECMG 1614/1616 15008KT 9999 -SHRA SCT030